Pride Of Kent — MQCJ2 — position and weather

sailwx.info

Track history (hours):
 
Tides and Currents Weather Stations Pressure Air Temp Water Temp Dewpoint Dewpoint Depression Visibility Wind Speed Wind Dir Waves Ship Positions

Pride Of Kent

Operator: P & O Ferries

Last reported at 2017-Apr-27 12:30 UTC. Time now 2017-Apr-27 12:56 UTC.
Position N 51°01' E 001°35'.

Length 180 m; draft 6 m.

Type: Passenger vessel. MMSI: 232009000.

Date/timePositionNaut miles runAvg speedWind from/ knotsBaromVisibWave heightAir tempDewpointWater temp
2017-Apr-27 12:30N 51°01' E 001°35'1020.1
2017-Apr-27 12:00N 51°07' E 001°21'1 1.2
2017-Apr-27 11:12N 51°07' E 001°20'1 5.5
2017-Apr-27 11:00N 51°07' E 001°22'918.6
2017-Apr-27 10:30N 51°03' E 001°35'917.9
2017-Apr-27 10:00N 50°58' E 001°47'2 5.0
2017-Apr-27 09:30N 50°58' E 001°51'0 0.0
2017-Apr-27 09:00N 50°58' E 001°51'4 8.0
2017-Apr-27 08:31N 50°58' E 001°45'917.3
2017-Apr-27 08:00N 51°01' E 001°32'1018.1
2017-Apr-27 07:29N 51°07' E 001°20'0 0.1
2017-Apr-27 06:19N 51°07' E 001°20'3 9.2
2017-Apr-27 06:00N 51°06' E 001°24'1019.2
2017-Apr-27 05:30N 51°01' E 001°37'917.9
2017-Apr-27 05:00N 50°58' E 001°51'0 0.5
2017-Apr-27 04:30N 50°58' E 001°51'0 0.0
2017-Apr-27 04:00N 50°58' E 001°51'1 1.5
2017-Apr-27 03:30N 50°58' E 001°50'917.1
2017-Apr-27 03:00N 51°00' E 001°37'918.3
2017-Apr-27 02:30N 51°05' E 001°25'4 6.2
2017-Apr-27 01:56N 51°07' E 001°20'0 0.0
2017-Apr-27 01:28N 51°07' E 001°20'0 0.1
2017-Apr-27 00:59N 51°07' E 001°20'612.1
2017-Apr-27 00:31N 51°07' E 001°29'816.9
2017-Apr-27 00:01N 51°02' E 001°40'815.3
2017-Apr-26 23:30N 50°58' E 001°51'1 1.2
2017-Apr-26 23:00N 50°58' E 001°52'0 0.1
2017-Apr-26 22:30N 50°58' E 001°52'714.5
2017-Apr-26 22:00N 50°59' E 001°40'918.0
2017-Apr-26 21:31N 51°03' E 001°28'6 5.4
2017-Apr-26 20:21N 51°07' E 001°20'3 9.8
2017-Apr-26 20:00N 51°06' E 001°25'918.8
2017-Apr-26 19:30N 51°01' E 001°37'918.1
2017-Apr-26 19:01N 50°58' E 001°51'0 0.4
2017-Apr-26 18:30N 50°58' E 001°51'0 0.1
2017-Apr-26 18:00N 50°58' E 001°51'714.7
2017-Apr-26 17:30N 50°59' E 001°39'1019.2
2017-Apr-26 17:01N 51°04' E 001°27'5 6.0
2017-Apr-26 16:08N 51°07' E 001°20'0 0.0
2017-Apr-26 15:48N 51°07' E 001°20'310.3
2017-Apr-26 15:30N 51°06' E 001°25'918.7
2017-Apr-26 15:01N 51°01' E 001°37'917.6
2017-Apr-26 14:30N 50°58' E 001°50'1 0.6
2017-Apr-26 13:30N 50°58' E 001°51'816.6
2017-Apr-26 13:00N 50°59' E 001°38'1019.8
2017-Apr-26 12:30N 51°05' E 001°25'4 3.8
2017-Apr-26 11:26N 51°07' E 001°20'410.3
2017-Apr-26 11:00N 51°07' E 001°27'816.6
2017-Apr-26 10:30N 51°02' E 001°38'815.9
2017-Apr-26 10:00N 50°58' E 001°49'1 2.5
2017-Apr-26 09:29N 50°58' E 001°51'0 0.0
2017-Apr-26 08:59N 50°58' E 001°51'2 3.5
2017-Apr-26 08:30N 50°58' E 001°48'917.7
2017-Apr-26 08:00N 50°60' E 001°34'1019.2
2017-Apr-26 07:30N 51°06' E 001°23'2 2.7
2017-Apr-26 06:38N 51°07' E 001°20'0 0.0
2017-Apr-26 06:28N 51°07' E 001°20'2 4.5
2017-Apr-26 06:00N 51°07' E 001°23'918.5
2017-Apr-26 05:30N 51°02' E 001°35'917.1
2017-Apr-26 05:01N 50°58' E 001°48'2 4.0
2017-Apr-26 04:31N 50°58' E 001°51'0 0.0
2017-Apr-26 04:00N 50°58' E 001°51'3 5.7
2017-Apr-26 03:31N 50°58' E 001°46'816.6
2017-Apr-26 03:00N 51°01' E 001°34'917.4
2017-Apr-26 02:30N 51°06' E 001°23'2 1.4
2017-Apr-26 01:00N 51°07' E 001°20'611.4
2017-Apr-26 00:30N 51°06' E 001°29'918.6
2017-Apr-26 00:00N 50°60' E 001°40'713.9
2017-Apr-25 23:31N 50°58' E 001°51'0 0.4
2017-Apr-25 23:00N 50°58' E 001°51'1 1.9
2017-Apr-25 22:30N 50°58' E 001°50'1019.0
2017-Apr-25 21:58N 50°59' E 001°33'817.4
2017-Apr-25 21:31N 51°05' E 001°25'4 3.0
2017-Apr-25 20:18N 51°07' E 001°20'312.2
2017-Apr-25 20:00N 51°07' E 001°26'1019.2
2017-Apr-25 19:30N 51°02' E 001°39'816.7
2017-Apr-25 19:00N 50°58' E 001°51'0 0.4
2017-Apr-25 18:30N 50°58' E 001°51'1 2.3
2017-Apr-25 18:01N 50°58' E 001°49'816.6
2017-Apr-25 17:31N 51°00' E 001°36'918.8
2017-Apr-25 17:01N 51°06' E 001°24'3 2.7
2017-Apr-25 15:48N 51°07' E 001°20'3 9.5
2017-Apr-25 15:31N 51°07' E 001°24'918.7
2017-Apr-25 15:00N 51°02' E 001°38'917.6
2017-Apr-25 14:31N 50°58' E 001°50'1 0.6
2017-Apr-25 13:30N 50°58' E 001°51'816.0
2017-Apr-25 13:00N 50°60' E 001°38'1019.6
2017-Apr-25 12:30N 51°05' E 001°26'4 3.5
2017-Apr-25 11:19N 51°07' E 001°20'3 9.8
2017-Apr-25 11:01N 51°07' E 001°25'918.0
2017-Apr-25 10:31N 51°03' E 001°38'816.2
2017-Apr-25 10:00N 50°58' E 001°48'2 3.1
2017-Apr-25 09:30N 50°58' E 001°51'0 0.0
2017-Apr-25 09:00N 50°58' E 001°51'611.5
2017-Apr-25 08:30N 50°58' E 001°42'816.2
2017-Apr-25 08:00N 51°01' E 001°30'817.0
2017-Apr-25 07:31N 51°07' E 001°21'1 0.9
2017-Apr-25 06:38N 51°07' E 001°20'0 0.2
2017-Apr-25 06:22N 51°07' E 001°20'412.1
2017-Apr-25 06:00N 51°06' E 001°27'917.5
2017-Apr-25 05:31N 51°01' E 001°38'816.2
2017-Apr-25 05:00N 50°58' E 001°50'1 1.1
2017-Apr-25 04:30N 50°58' E 001°51'0 0.0
2017-Apr-25 04:00N 50°58' E 001°51'5 9.8
2017-Apr-25 03:31N 50°58' E 001°43'815.1
2017-Apr-25 03:00N 50°58' E 001°31'918.1
2017-Apr-25 02:31N 51°06' E 001°23'3 5.1
2017-Apr-25 01:59N 51°07' E 001°20'0 0.0
2017-Apr-25 01:29N 51°07' E 001°20'3 7.2
2017-Apr-25 01:00N 51°07' E 001°25'816.1
2017-Apr-25 00:30N 51°02' E 001°36'815.3
2017-Apr-25 00:00N 50°58' E 001°46'3 5.8
2017-Apr-24 23:30N 50°58' E 001°51'0 0.0
2017-Apr-24 23:01N 50°58' E 001°51'5 9.2
2017-Apr-24 22:30N 50°58' E 001°44'1020.4
2017-Apr-24 22:00N 51°01' E 001°28'8 5.8
2017-Apr-24 20:36N 51°07' E 001°20'0 0.0
2017-Apr-24 20:18N 51°07' E 001°20'0 0.6
2017-Apr-24 19:59N 51°07' E 001°20'815.9
2017-Apr-24 19:30N 51°04' E 001°31'1019.7
2017-Apr-24 19:00N 50°58' E 001°44'4 8.7
2017-Apr-24 18:30N 50°58' E 001°51'0 0.0
2017-Apr-24 18:00N 50°58' E 001°51'611.6
2017-Apr-24 17:30N 50°58' E 001°42'714.0
2017-Apr-24 17:00N 50°60' E 001°31'917.7
2017-Apr-24 16:30N 51°07' E 001°22'2 2.4
2017-Apr-24 15:50N 51°07' E 001°20'0 0.7
2017-Apr-24 15:28N 51°07' E 001°20'818.1
2017-Apr-24 15:00N 51°04' E 001°32'1019.6
2017-Apr-24 14:30N 50°58' E 001°45'4 3.8
2017-Apr-24 13:30N 50°58' E 001°51'5 9.7
2017-Apr-24 13:00N 50°58' E 001°43'1020.2
2017-Apr-24 12:31N 51°03' E 001°29'711.4
2017-Apr-24 11:52N 51°07' E 001°20'0 0.0
2017-Apr-24 11:28N 51°07' E 001°20'3 5.6
2017-Apr-24 11:00N 51°07' E 001°24'816.7
2017-Apr-24 10:30N 51°03' E 001°36'917.5
2017-Apr-24 10:00N 50°58' E 001°47'2 4.4
2017-Apr-24 09:29N 50°58' E 001°51'0 0.0
2017-Apr-24 09:00N 50°58' E 001°51'1 1.6
2017-Apr-24 08:31N 50°58' E 001°50'1020.2
2017-Apr-24 08:00N 51°01' E 001°34'918.3
2017-Apr-24 07:30N 51°07' E 001°23'2 1.9
2017-Apr-24 06:33N 51°07' E 001°20'0 0.3
2017-Apr-24 06:30N 51°07' E 001°20'612.7
2017-Apr-24 06:00N 51°05' E 001°29'918.5
2017-Apr-24 05:31N 50°60' E 001°41'612.9
2017-Apr-24 05:00N 50°58' E 001°51'0 0.1
2017-Apr-24 04:30N 50°58' E 001°51'0 0.0
2017-Apr-24 04:00N 50°58' E 001°51'0 0.2
2017-Apr-24 03:30N 50°58' E 001°51'815.0
2017-Apr-24 03:00N 50°59' E 001°39'1020.0
2017-Apr-24 02:31N 51°05' E 001°26'5 4.2
2017-Apr-24 01:22N 51°07' E 001°20'3 9.0
2017-Apr-24 01:00N 51°07' E 001°25'816.8
2017-Apr-24 00:31N 51°01' E 001°35'713.3
2017-Apr-24 00:00N 50°58' E 001°44'4 8.7
2017-Apr-23 23:30N 50°58' E 001°51'0 0.0
2017-Apr-23 23:00N 50°58' E 001°51'0 0.5
2017-Apr-23 22:30N 50°58' E 001°51'917.2
2017-Apr-23 22:00N 50°60' E 001°38'1019.8
2017-Apr-23 21:31N 51°06' E 001°25'4 3.3
2017-Apr-23 20:24N 51°07' E 001°20'1 3.0
2017-Apr-23 20:00N 51°07' E 001°22'917.6
2017-Apr-23 19:30N 51°02' E 001°34'918.7
2017-Apr-23 19:00N 50°58' E 001°47'3 5.1
2017-Apr-23 18:30N 50°58' E 001°51'0 0.0
2017-Apr-23 18:00N 50°58' E 001°51'4 7.8
2017-Apr-23 17:30N 50°58' E 001°45'917.9
2017-Apr-23 17:00N 51°02' E 001°32'816.8
2017-Apr-23 16:30N 51°06' E 001°21'1 2.2
2017-Apr-23 15:59N 51°07' E 001°20'0 0.2
2017-Apr-23 15:30N 51°07' E 001°20'816.5
2017-Apr-23 15:00N 51°04' E 001°32'1313.3
2017-Apr-23 14:00N 50°58' E 001°51'0 0.0
2017-Apr-23 13:30N 50°58' E 001°51'2 3.2
2017-Apr-23 13:01N 50°58' E 001°48'918.6
2017-Apr-23 12:30N 51°00' E 001°34'1020.2
2017-Apr-23 12:01N 51°06' E 001°21'1 1.4
2017-Apr-23 11:04N 51°07' E 001°20'0 1.0
2017-Apr-23 11:00N 51°07' E 001°20'714.8
2017-Apr-23 10:31N 51°06' E 001°32'1019.3
2017-Apr-23 10:00N 50°59' E 001°43'510.4
2017-Apr-23 09:30N 50°58' E 001°51'0 0.0
2017-Apr-23 08:50N 50°58' E 001°51'310.1
2017-Apr-23 08:30N 50°58' E 001°46'918.9
2017-Apr-23 08:00N 51°01' E 001°31'917.9
2017-Apr-23 07:30N 51°07' E 001°21'1 0.4
2017-Apr-23 05:58N 51°07' E 001°20'612.4
2017-Apr-23 05:30N 51°05' E 001°29'1019.6
2017-Apr-23 05:01N 50°60' E 001°41'612.6
2017-Apr-23 04:30N 50°58' E 001°51'0 0.0
2017-Apr-23 04:00N 50°58' E 001°51'0 0.5
2017-Apr-23 03:30N 50°58' E 001°51'816.1
2017-Apr-23 03:01N 50°59' E 001°38'1019.9
2017-Apr-23 02:31N 51°05' E 001°25'4 5.5
2017-Apr-23 01:45N 51°07' E 001°20'0 0.0
2017-Apr-23 01:10N 51°07' E 001°20'0 0.7
2017-Apr-23 01:00N 51°07' E 001°20'713.5
2017-Apr-23 00:31N 51°07' E 001°31'714.9
2017-Apr-23 00:01N 51°01' E 001°39'815.4
2017-Apr-22 23:30N 50°58' E 001°50'0 0.9
2017-Apr-22 22:59N 50°58' E 001°51'0 0.1
2017-Apr-22 22:30N 50°58' E 001°51'815.1
2017-Apr-22 22:01N 50°59' E 001°39'918.0
2017-Apr-22 21:31N 51°04' E 001°27'5 4.5
2017-Apr-22 20:18N 51°07' E 001°20'413.9
2017-Apr-22 20:00N 51°06' E 001°26'1019.4
2017-Apr-22 19:30N 51°00' E 001°39'815.8
2017-Apr-22 19:01N 50°58' E 001°51'0 0.5
2017-Apr-22 18:30N 50°58' E 001°51'0 0.0
2017-Apr-22 18:00N 50°58' E 001°51'510.2
2017-Apr-22 17:30N 50°58' E 001°43'918.8
2017-Apr-22 17:00N 51°03' E 001°30'8 5.7
2017-Apr-22 15:39N 51°07' E 001°20'0 0.6
2017-Apr-22 15:30N 51°07' E 001°20'816.6
2017-Apr-22 15:01N 51°04' E 001°32'1020.1
2017-Apr-22 14:30N 50°58' E 001°45'4 3.7
2017-Apr-22 13:30N 50°58' E 001°51'4 8.8
2017-Apr-22 13:00N 50°58' E 001°44'918.9
2017-Apr-22 12:30N 51°03' E 001°31'8 5.9
2017-Apr-22 11:04N 51°07' E 001°20'0 1.5
2017-Apr-22 11:00N 51°07' E 001°20'815.9
2017-Apr-22 10:30N 51°04' E 001°32'1019.5
2017-Apr-22 10:01N 50°59' E 001°44'5 8.7
2017-Apr-22 09:29N 50°58' E 001°51'0 0.0
2017-Apr-22 09:00N 50°58' E 001°51'3 5.5
2017-Apr-22 08:30N 50°58' E 001°47'1019.6
2017-Apr-22 08:00N 51°02' E 001°32'917.6
2017-Apr-22 07:31N 51°07' E 001°21'1 1.0
2017-Apr-22 06:38N 51°07' E 001°20'0 0.1
2017-Apr-22 06:29N 51°07' E 001°20'510.6
2017-Apr-22 06:01N 51°05' E 001°28'917.9
2017-Apr-22 05:30N 51°00' E 001°39'815.3
2017-Apr-22 05:01N 50°58' E 001°51'0 0.3
2017-Apr-22 04:30N 50°58' E 001°51'0 0.0
2017-Apr-22 04:00N 50°58' E 001°51'3 6.2
2017-Apr-22 03:30N 50°58' E 001°46'816.1
2017-Apr-22 03:00N 51°01' E 001°34'815.8
2017-Apr-22 02:30N 51°06' E 001°24'3 5.6
2017-Apr-22 01:57N 51°07' E 001°20'0 0.0
2017-Apr-22 01:31N 51°07' E 001°20'0 0.0
2017-Apr-22 00:59N 51°07' E 001°20'510.3
2017-Apr-22 00:31N 51°06' E 001°27'917.8
2017-Apr-22 00:00N 51°00' E 001°39'815.8
2017-Apr-21 23:31N 50°58' E 001°51'0 0.4
2017-Apr-21 23:00N 50°58' E 001°51'1 2.4
2017-Apr-21 22:30N 50°58' E 001°49'1019.5
2017-Apr-21 22:00N 50°58' E 001°34'918.0
2017-Apr-21 21:30N 51°05' E 001°25'4 6.4
2017-Apr-21 20:56N 51°07' E 001°20'0 0.0
2017-Apr-21 20:29N 51°07' E 001°20'3 6.1
2017-Apr-21 20:00N 51°07' E 001°25'917.6
2017-Apr-21 19:30N 51°02' E 001°36'816.2
2017-Apr-21 19:00N 50°58' E 001°48'2 4.0
2017-Apr-21 18:30N 50°58' E 001°51'0 0.0
2017-Apr-21 18:00N 50°58' E 001°51'611.7
2017-Apr-21 17:31N 50°58' E 001°42'917.2
2017-Apr-21 17:01N 51°02' E 001°30'815.8
2017-Apr-21 16:30N 51°07' E 001°20'0 0.9
2017-Apr-21 15:59N 51°07' E 001°20'0 0.2
2017-Apr-21 15:26N 51°07' E 001°20'614.6
2017-Apr-21 15:00N 51°05' E 001°29'1019.7
2017-Apr-21 14:30N 50°59' E 001°42'6 5.7
2017-Apr-21 13:30N 50°58' E 001°51'2 4.6
2017-Apr-21 13:01N 50°58' E 001°47'917.8
2017-Apr-21 12:31N 51°01' E 001°34'1019.3
2017-Apr-21 12:00N 51°07' E 001°21'1 0.9
2017-Apr-21 11:03N 51°07' E 001°20'0 2.5
2017-Apr-21 10:58N 51°07' E 001°20'714.9
2017-Apr-21 10:31N 51°04' E 001°30'918.6
2017-Apr-21 10:00N 50°59' E 001°42'611.1
2017-Apr-21 09:30N 50°58' E 001°51'0 0.0
2017-Apr-21 09:00N 50°58' E 001°51'3 5.3
2017-Apr-21 08:30N 50°58' E 001°47'917.8
2017-Apr-21 08:00N 51°00' E 001°33'817.0
2017-Apr-21 07:30N 51°06' E 001°24'3 2.3
2017-Apr-21 06:22N 51°07' E 001°20'2 6.8
2017-Apr-21 06:00N 51°07' E 001°24'918.1
2017-Apr-21 05:30N 51°02' E 001°36'816.3
2017-Apr-21 05:00N 50°58' E 001°47'2 4.5
2017-Apr-21 04:30N 50°58' E 001°51'0 0.0
2017-Apr-21 03:59N 50°58' E 001°51'2 4.5
2017-Apr-21 03:31N 50°58' E 001°48'917.6
2017-Apr-21 03:01N 51°01' E 001°35'816.7
2017-Apr-21 02:30N 51°06' E 001°23'3 2.6
2017-Apr-21 01:31N 51°07' E 001°20'0 0.0
2017-Apr-21 01:06N 51°07' E 001°20'0 0.0
2017-Apr-21 00:58N 51°07' E 001°20'510.4
2017-Apr-21 00:31N 51°06' E 001°27'816.7
2017-Apr-21 00:01N 51°01' E 001°38'816.5
2017-Apr-20 23:30N 50°58' E 001°50'1 1.3
2017-Apr-20 23:00N 50°58' E 001°51'0 0.0
2017-Apr-20 22:30N 50°58' E 001°51'713.6
2017-Apr-20 22:00N 50°59' E 001°40'917.7
2017-Apr-20 21:30N 51°03' E 001°28'713.0
2017-Apr-20 21:00N 51°07' E 001°20'0 0.0
2017-Apr-20 20:22N 51°07' E 001°20'1 3.3
2017-Apr-20 20:00N 51°07' E 001°22'917.8
2017-Apr-20 19:31N 51°03' E 001°35'917.5
2017-Apr-20 19:01N 50°58' E 001°46'3 6.6
2017-Apr-20 18:29N 50°58' E 001°51'0 0.0
2017-Apr-20 18:00N 50°58' E 001°51'4 8.8
2017-Apr-20 17:30N 50°58' E 001°44'1019.3
2017-Apr-20 17:00N 51°02' E 001°30'816.4
2017-Apr-20 16:30N 51°07' E 001°20'0 0.0
2017-Apr-20 15:36N 51°07' E 001°20'0 1.3
2017-Apr-20 15:31N 51°07' E 001°20'816.6
2017-Apr-20 15:00N 51°04' E 001°32'1019.6
2017-Apr-20 14:31N 50°58' E 001°45'4 4.0
2017-Apr-20 13:30N 50°58' E 001°51'2 4.5
2017-Apr-20 13:01N 50°58' E 001°48'918.4
2017-Apr-20 12:30N 51°01' E 001°34'1019.7
2017-Apr-20 12:01N 51°07' E 001°21'1 1.0
2017-Apr-20 11:09N 51°07' E 001°20'0 0.7
2017-Apr-20 11:00N 51°07' E 001°20'816.4
2017-Apr-20 10:30N 51°05' E 001°33'918.9
2017-Apr-20 10:00N 50°59' E 001°44'5 9.0
2017-Apr-20 09:30N 50°58' E 001°51'0 0.0
2017-Apr-20 09:00N 50°58' E 001°51'1 3.0
2017-Apr-20 08:31N 50°58' E 001°49'917.3
2017-Apr-20 08:00N 51°01' E 001°36'918.0
2017-Apr-20 07:30N 51°06' E 001°24'3 2.4
2017-Apr-20 06:25N 51°07' E 001°20'3 8.3
2017-Apr-20 06:00N 51°06' E 001°25'917.6
2017-Apr-20 05:30N 51°01' E 001°37'815.7
2017-Apr-20 05:00N 50°58' E 001°48'2 3.9
2017-Apr-20 04:30N 50°58' E 001°51'0 0.0
2017-Apr-20 04:00N 50°58' E 001°51'1 2.5
2017-Apr-20 03:31N 50°58' E 001°49'918.6
2017-Apr-20 03:01N 50°60' E 001°35'917.2
2017-Apr-20 02:31N 51°06' E 001°25'4 5.6
2017-Apr-20 01:53N 51°07' E 001°20'0 0.0
2017-Apr-20 01:23N 51°07' E 001°20'3 7.8
2017-Apr-20 01:01N 51°07' E 001°25'1019.5
2017-Apr-20 00:31N 51°01' E 001°37'917.6
2017-Apr-20 00:00N 50°58' E 001°51'0 0.7
2017-Apr-19 23:30N 50°58' E 001°51'0 0.0
2017-Apr-19 23:00N 50°58' E 001°51'0 0.0
2017-Apr-19 22:30N 50°58' E 001°51'713.6
2017-Apr-19 22:00N 50°59' E 001°40'919.0
2017-Apr-19 21:30N 51°04' E 001°28'6 6.4
2017-Apr-19 20:33N 51°07' E 001°20'0 0.0
2017-Apr-19 20:07N 51°07' E 001°20'0 1.0
2017-Apr-19 20:00N 51°07' E 001°20'816.9
2017-Apr-19 19:31N 51°04' E 001°32'1019.1
2017-Apr-19 19:00N 50°58' E 001°45'4 8.0
2017-Apr-19 18:30N 50°58' E 001°51'0 0.0
2017-Apr-19 18:00N 50°58' E 001°51'3 6.6
2017-Apr-19 17:30N 50°58' E 001°46'917.5
2017-Apr-19 17:01N 51°01' E 001°33'917.4
2017-Apr-19 16:30N 51°06' E 001°21'1 1.3
2017-Apr-19 15:23N 51°07' E 001°20'513.6
2017-Apr-19 15:00N 51°05' E 001°28'1019.1
2017-Apr-19 14:30N 50°60' E 001°40'713.8
2017-Apr-19 14:00N 50°58' E 001°51'0 0.2
2017-Apr-19 13:30N 50°58' E 001°51'1 2.1
2017-Apr-19 13:00N 50°58' E 001°50'917.5
2017-Apr-19 12:30N 50°59' E 001°36'918.8
2017-Apr-19 12:00N 51°05' E 001°23'3 3.3
2017-Apr-19 10:58N 51°07' E 001°20'614.3
2017-Apr-19 10:30N 51°06' E 001°30'918.8
2017-Apr-19 10:01N 50°59' E 001°41'713.0
2017-Apr-19 09:30N 50°58' E 001°51'0 0.0
2017-Apr-19 09:00N 50°58' E 001°51'2 4.6
2017-Apr-19 08:31N 50°58' E 001°47'917.7
2017-Apr-19 08:00N 51°01' E 001°34'1019.2
2017-Apr-19 07:30N 51°07' E 001°22'1 1.3
2017-Apr-19 06:25N 51°07' E 001°20'3 7.9
2017-Apr-19 06:00N 51°07' E 001°25'917.4
2017-Apr-19 05:30N 51°01' E 001°36'816.1
2017-Apr-19 05:00N 50°58' E 001°48'2 3.9
2017-Apr-19 04:30N 50°58' E 001°51'0 0.0
2017-Apr-19 04:00N 50°58' E 001°51'1 1.4
2017-Apr-19 03:30N 50°58' E 001°50'917.8
2017-Apr-19 03:00N 50°60' E 001°36'917.5
2017-Apr-19 02:30N 51°05' E 001°25'4 3.8
2017-Apr-19 01:31N 51°07' E 001°20'0 0.0
2017-Apr-19 01:02N 51°07' E 001°20'0 0.3
2017-Apr-19 01:00N 51°07' E 001°20'611.8
2017-Apr-19 00:30N 51°05' E 001°29'917.8
2017-Apr-19 00:01N 51°00' E 001°40'714.1
2017-Apr-18 23:30N 50°58' E 001°51'0 0.1
2017-Apr-18 23:00N 50°58' E 001°51'0 0.0
2017-Apr-18 22:30N 50°58' E 001°51'611.4
2017-Apr-18 22:00N 50°58' E 001°42'816.8
2017-Apr-18 21:31N 51°03' E 001°31'8 7.0
2017-Apr-18 20:20N 51°07' E 001°20'1 2.2
2017-Apr-18 20:00N 51°07' E 001°21'917.8
2017-Apr-18 19:30N 51°03' E 001°34'918.8
2017-Apr-18 19:00N 50°58' E 001°46'3 5.9
2017-Apr-18 18:30N 50°58' E 001°51'0 0.0
2017-Apr-18 18:00N 50°58' E 001°51'714.4
2017-Apr-18 17:30N 50°58' E 001°40'918.7
2017-Apr-18 17:01N 51°04' E 001°28'6 6.3
2017-Apr-18 16:03N 51°07' E 001°20'0 0.0
2017-Apr-18 15:50N 51°07' E 001°20'2 6.8
2017-Apr-18 15:31N 51°07' E 001°24'918.7
2017-Apr-18 15:00N 51°03' E 001°37'1010.0
2017-Apr-18 14:01N 50°58' E 001°51'0 0.0
2017-Apr-18 13:31N 50°58' E 001°51'4 7.5
2017-Apr-18 13:00N 50°58' E 001°45'918.2
2017-Apr-18 12:30N 51°02' E 001°32'917.8
2017-Apr-18 11:59N 51°07' E 001°20'0 0.6
2017-Apr-18 11:15N 51°07' E 001°20'0 1.0
2017-Apr-18 11:00N 51°07' E 001°20'917.6
2017-Apr-18 10:30N 51°04' E 001°33'919.0
2017-Apr-18 10:00N 50°58' E 001°45'4 7.6
2017-Apr-18 09:30N 50°58' E 001°51'0 0.0
2017-Apr-18 09:00N 50°58' E 001°51'0 0.8
2017-Apr-18 08:30N 50°58' E 001°51'816.7
2017-Apr-18 08:01N 50°60' E 001°38'1019.8
2017-Apr-18 07:31N 51°05' E 001°25'4 5.5
2017-Apr-18 06:50N 51°07' E 001°20'0 0.1
2017-Apr-18 06:16N 51°07' E 001°20'2 7.1
2017-Apr-18 06:00N 51°07' E 001°23'918.3
2017-Apr-18 05:31N 51°03' E 001°36'917.5
2017-Apr-18 05:01N 50°58' E 001°47'2 4.2
2017-Apr-18 04:28N 50°58' E 001°51'0 0.0
2017-Apr-18 04:00N 50°58' E 001°51'0 0.1
2017-Apr-18 03:30N 50°58' E 001°51'816.2
2017-Apr-18 03:00N 50°60' E 001°38'917.9
2017-Apr-18 02:31N 51°05' E 001°27'5 9.3
2017-Apr-18 01:58N 51°07' E 001°20'0 0.0
2017-Apr-18 01:28N 51°07' E 001°20'0 0.0
2017-Apr-18 00:57N 51°07' E 001°20'4 9.6
2017-Apr-18 00:30N 51°06' E 001°27'1020.1
2017-Apr-18 00:01N 51°01' E 001°40'612.7
2017-Apr-17 23:31N 50°58' E 001°49'1 2.3
2017-Apr-17 23:00N 50°58' E 001°51'1 1.0
2017-Apr-17 22:30N 50°58' E 001°50'714.4
2017-Apr-17 22:01N 50°58' E 001°39'612.5
2017-Apr-17 21:30N 51°01' E 001°31'916.4
2017-Apr-17 20:56N 51°07' E 001°20'0 0.0
2017-Apr-17 20:02N 51°07' E 001°20'0 1.7
2017-Apr-17 19:59N 51°07' E 001°20'715.1
2017-Apr-17 19:30N 51°05' E 001°31'917.9
2017-Apr-17 19:00N 50°59' E 001°42'610.7
2017-Apr-17 18:29N 50°58' E 001°51'0 0.0
2017-Apr-17 18:00N 50°58' E 001°51'1 2.6
2017-Apr-17 17:30N 50°58' E 001°49'1019.5
2017-Apr-17 17:01N 50°59' E 001°34'1019.0
2017-Apr-17 16:31N 51°06' E 001°23'3 2.8
2017-Apr-17 15:34N 51°07' E 001°20'0 1.4
2017-Apr-17 15:30N 51°07' E 001°20'816.0
2017-Apr-17 15:01N 51°04' E 001°32'918.9
2017-Apr-17 14:31N 50°59' E 001°44'5 4.4
2017-Apr-17 13:28N 50°58' E 001°51'3 5.5
2017-Apr-17 13:01N 50°58' E 001°47'  
Track history (hours):
 
Tides and Currents Weather Stations Pressure Air Temp Water Temp Dewpoint Dewpoint Depression Visibility Wind Speed Wind Dir Waves Ship Positions

Pride Of Kent

Operator: P & O Ferries

Last reported at 2017-Apr-27 12:30 UTC. Time now 2017-Apr-27 12:56 UTC.
Position N 51°01' E 001°35'.

Length 180 m; draft 6 m.

Type: Passenger vessel. MMSI: 232009000.

Date/timePositionNaut miles runAvg speedWind from/ knotsBaromVisibWave heightAir tempDewpointWater temp
2017-Apr-27 12:30N 51°01' E 001°35'1020.1
2017-Apr-27 12:00N 51°07' E 001°21'1 1.2
2017-Apr-27 11:12N 51°07' E 001°20'1 5.5
2017-Apr-27 11:00N 51°07' E 001°22'918.6
2017-Apr-27 10:30N 51°03' E 001°35'917.9
2017-Apr-27 10:00N 50°58' E 001°47'2 5.0
2017-Apr-27 09:30N 50°58' E 001°51'0 0.0
2017-Apr-27 09:00N 50°58' E 001°51'4 8.0
2017-Apr-27 08:31N 50°58' E 001°45'917.3
2017-Apr-27 08:00N 51°01' E 001°32'1018.1
2017-Apr-27 07:29N 51°07' E 001°20'0 0.1
2017-Apr-27 06:19N 51°07' E 001°20'3 9.2
2017-Apr-27 06:00N 51°06' E 001°24'1019.2
2017-Apr-27 05:30N 51°01' E 001°37'917.9
2017-Apr-27 05:00N 50°58' E 001°51'0 0.5
2017-Apr-27 04:30N 50°58' E 001°51'0 0.0
2017-Apr-27 04:00N 50°58' E 001°51'1 1.5
2017-Apr-27 03:30N 50°58' E 001°50'917.1
2017-Apr-27 03:00N 51°00' E 001°37'918.3
2017-Apr-27 02:30N 51°05' E 001°25'4 6.2
2017-Apr-27 01:56N 51°07' E 001°20'0 0.0
2017-Apr-27 01:28N 51°07' E 001°20'0 0.1
2017-Apr-27 00:59N 51°07' E 001°20'612.1
2017-Apr-27 00:31N 51°07' E 001°29'816.9
2017-Apr-27 00:01N 51°02' E 001°40'815.3
2017-Apr-26 23:30N 50°58' E 001°51'1 1.2
2017-Apr-26 23:00N 50°58' E 001°52'0 0.1
2017-Apr-26 22:30N 50°58' E 001°52'714.5
2017-Apr-26 22:00N 50°59' E 001°40'918.0
2017-Apr-26 21:31N 51°03' E 001°28'6 5.4
2017-Apr-26 20:21N 51°07' E 001°20'3 9.8
2017-Apr-26 20:00N 51°06' E 001°25'918.8
2017-Apr-26 19:30N 51°01' E 001°37'918.1
2017-Apr-26 19:01N 50°58' E 001°51'0 0.4
2017-Apr-26 18:30N 50°58' E 001°51'0 0.1
2017-Apr-26 18:00N 50°58' E 001°51'714.7
2017-Apr-26 17:30N 50°59' E 001°39'1019.2
2017-Apr-26 17:01N 51°04' E 001°27'5 6.0
2017-Apr-26 16:08N 51°07' E 001°20'0 0.0
2017-Apr-26 15:48N 51°07' E 001°20'310.3
2017-Apr-26 15:30N 51°06' E 001°25'918.7
2017-Apr-26 15:01N 51°01' E 001°37'917.6
2017-Apr-26 14:30N 50°58' E 001°50'1 0.6
2017-Apr-26 13:30N 50°58' E 001°51'816.6
2017-Apr-26 13:00N 50°59' E 001°38'1019.8
2017-Apr-26 12:30N 51°05' E 001°25'4 3.8
2017-Apr-26 11:26N 51°07' E 001°20'410.3
2017-Apr-26 11:00N 51°07' E 001°27'816.6
2017-Apr-26 10:30N 51°02' E 001°38'815.9
2017-Apr-26 10:00N 50°58' E 001°49'1 2.5
2017-Apr-26 09:29N 50°58' E 001°51'0 0.0
2017-Apr-26 08:59N 50°58' E 001°51'2 3.5
2017-Apr-26 08:30N 50°58' E 001°48'917.7
2017-Apr-26 08:00N 50°60' E 001°34'1019.2
2017-Apr-26 07:30N 51°06' E 001°23'2 2.7
2017-Apr-26 06:38N 51°07' E 001°20'0 0.0
2017-Apr-26 06:28N 51°07' E 001°20'2 4.5
2017-Apr-26 06:00N 51°07' E 001°23'918.5
2017-Apr-26 05:30N 51°02' E 001°35'917.1
2017-Apr-26 05:01N 50°58' E 001°48'2 4.0
2017-Apr-26 04:31N 50°58' E 001°51'0 0.0
2017-Apr-26 04:00N 50°58' E 001°51'3 5.7
2017-Apr-26 03:31N 50°58' E 001°46'816.6
2017-Apr-26 03:00N 51°01' E 001°34'917.4
2017-Apr-26 02:30N 51°06' E 001°23'2 1.4
2017-Apr-26 01:00N 51°07' E 001°20'611.4
2017-Apr-26 00:30N 51°06' E 001°29'918.6
2017-Apr-26 00:00N 50°60' E 001°40'713.9
2017-Apr-25 23:31N 50°58' E 001°51'0 0.4
2017-Apr-25 23:00N 50°58' E 001°51'1 1.9
2017-Apr-25 22:30N 50°58' E 001°50'1019.0
2017-Apr-25 21:58N 50°59' E 001°33'817.4
2017-Apr-25 21:31N 51°05' E 001°25'4 3.0
2017-Apr-25 20:18N 51°07' E 001°20'312.2
2017-Apr-25 20:00N 51°07' E 001°26'1019.2
2017-Apr-25 19:30N 51°02' E 001°39'816.7
2017-Apr-25 19:00N 50°58' E 001°51'0 0.4
2017-Apr-25 18:30N 50°58' E 001°51'1 2.3
2017-Apr-25 18:01N 50°58' E 001°49'816.6
2017-Apr-25 17:31N 51°00' E 001°36'918.8
2017-Apr-25 17:01N 51°06' E 001°24'3 2.7
2017-Apr-25 15:48N 51°07' E 001°20'3 9.5
2017-Apr-25 15:31N 51°07' E 001°24'918.7
2017-Apr-25 15:00N 51°02' E 001°38'917.6
2017-Apr-25 14:31N 50°58' E 001°50'1 0.6
2017-Apr-25 13:30N 50°58' E 001°51'816.0
2017-Apr-25 13:00N 50°60' E 001°38'1019.6
2017-Apr-25 12:30N 51°05' E 001°26'4 3.5
2017-Apr-25 11:19N 51°07' E 001°20'3 9.8
2017-Apr-25 11:01N 51°07' E 001°25'918.0
2017-Apr-25 10:31N 51°03' E 001°38'816.2
2017-Apr-25 10:00N 50°58' E 001°48'2 3.1
2017-Apr-25 09:30N 50°58' E 001°51'0 0.0
2017-Apr-25 09:00N 50°58' E 001°51'611.5
2017-Apr-25 08:30N 50°58' E 001°42'816.2
2017-Apr-25 08:00N 51°01' E 001°30'817.0
2017-Apr-25 07:31N 51°07' E 001°21'1 0.9
2017-Apr-25 06:38N 51°07' E 001°20'0 0.2
2017-Apr-25 06:22N 51°07' E 001°20'412.1
2017-Apr-25 06:00N 51°06' E 001°27'917.5
2017-Apr-25 05:31N 51°01' E 001°38'816.2
2017-Apr-25 05:00N 50°58' E 001°50'1 1.1
2017-Apr-25 04:30N 50°58' E 001°51'0 0.0
2017-Apr-25 04:00N 50°58' E 001°51'5 9.8
2017-Apr-25 03:31N 50°58' E 001°43'815.1
2017-Apr-25 03:00N 50°58' E 001°31'918.1
2017-Apr-25 02:31N 51°06' E 001°23'3 5.1
2017-Apr-25 01:59N 51°07' E 001°20'0 0.0
2017-Apr-25 01:29N 51°07' E 001°20'3 7.2
2017-Apr-25 01:00N 51°07' E 001°25'816.1
2017-Apr-25 00:30N 51°02' E 001°36'815.3
2017-Apr-25 00:00N 50°58' E 001°46'3 5.8
2017-Apr-24 23:30N 50°58' E 001°51'0 0.0
2017-Apr-24 23:01N 50°58' E 001°51'5 9.2
2017-Apr-24 22:30N 50°58' E 001°44'1020.4
2017-Apr-24 22:00N 51°01' E 001°28'8 5.8
2017-Apr-24 20:36N 51°07' E 001°20'0 0.0
2017-Apr-24 20:18N 51°07' E 001°20'0 0.6
2017-Apr-24 19:59N 51°07' E 001°20'815.9
2017-Apr-24 19:30N 51°04' E 001°31'1019.7
2017-Apr-24 19:00N 50°58' E 001°44'4 8.7
2017-Apr-24 18:30N 50°58' E 001°51'0 0.0
2017-Apr-24 18:00N 50°58' E 001°51'611.6
2017-Apr-24 17:30N 50°58' E 001°42'714.0
2017-Apr-24 17:00N 50°60' E 001°31'917.7
2017-Apr-24 16:30N 51°07' E 001°22'2 2.4
2017-Apr-24 15:50N 51°07' E 001°20'0 0.7
2017-Apr-24 15:28N 51°07' E 001°20'818.1
2017-Apr-24 15:00N 51°04' E 001°32'1019.6
2017-Apr-24 14:30N 50°58' E 001°45'4 3.8
2017-Apr-24 13:30N 50°58' E 001°51'5 9.7
2017-Apr-24 13:00N 50°58' E 001°43'1020.2
2017-Apr-24 12:31N 51°03' E 001°29'711.4
2017-Apr-24 11:52N 51°07' E 001°20'0 0.0
2017-Apr-24 11:28N 51°07' E 001°20'3 5.6
2017-Apr-24 11:00N 51°07' E 001°24'816.7
2017-Apr-24 10:30N 51°03' E 001°36'917.5
2017-Apr-24 10:00N 50°58' E 001°47'2 4.4
2017-Apr-24 09:29N 50°58' E 001°51'0 0.0
2017-Apr-24 09:00N 50°58' E 001°51'1 1.6
2017-Apr-24 08:31N 50°58' E 001°50'1020.2
2017-Apr-24 08:00N 51°01' E 001°34'918.3
2017-Apr-24 07:30N 51°07' E 001°23'2 1.9
2017-Apr-24 06:33N 51°07' E 001°20'0 0.3
2017-Apr-24 06:30N 51°07' E 001°20'612.7
2017-Apr-24 06:00N 51°05' E 001°29'918.5
2017-Apr-24 05:31N 50°60' E 001°41'612.9
2017-Apr-24 05:00N 50°58' E 001°51'0 0.1
2017-Apr-24 04:30N 50°58' E 001°51'0 0.0
2017-Apr-24 04:00N 50°58' E 001°51'0 0.2
2017-Apr-24 03:30N 50°58' E 001°51'815.0
2017-Apr-24 03:00N 50°59' E 001°39'1020.0
2017-Apr-24 02:31N 51°05' E 001°26'5 4.2
2017-Apr-24 01:22N 51°07' E 001°20'3 9.0
2017-Apr-24 01:00N 51°07' E 001°25'816.8
2017-Apr-24 00:31N 51°01' E 001°35'713.3
2017-Apr-24 00:00N 50°58' E 001°44'4 8.7
2017-Apr-23 23:30N 50°58' E 001°51'0 0.0
2017-Apr-23 23:00N 50°58' E 001°51'0 0.5
2017-Apr-23 22:30N 50°58' E 001°51'917.2
2017-Apr-23 22:00N 50°60' E 001°38'1019.8
2017-Apr-23 21:31N 51°06' E 001°25'4 3.3
2017-Apr-23 20:24N 51°07' E 001°20'1 3.0
2017-Apr-23 20:00N 51°07' E 001°22'917.6
2017-Apr-23 19:30N 51°02' E 001°34'918.7
2017-Apr-23 19:00N 50°58' E 001°47'3 5.1
2017-Apr-23 18:30N 50°58' E 001°51'0 0.0
2017-Apr-23 18:00N 50°58' E 001°51'4 7.8
2017-Apr-23 17:30N 50°58' E 001°45'917.9
2017-Apr-23 17:00N 51°02' E 001°32'816.8
2017-Apr-23 16:30N 51°06' E 001°21'1 2.2
2017-Apr-23 15:59N 51°07' E 001°20'0 0.2
2017-Apr-23 15:30N 51°07' E 001°20'816.5
2017-Apr-23 15:00N 51°04' E 001°32'1313.3
2017-Apr-23 14:00N 50°58' E 001°51'0 0.0
2017-Apr-23 13:30N 50°58' E 001°51'2 3.2
2017-Apr-23 13:01N 50°58' E 001°48'918.6
2017-Apr-23 12:30N 51°00' E 001°34'1020.2
2017-Apr-23 12:01N 51°06' E 001°21'1 1.4
2017-Apr-23 11:04N 51°07' E 001°20'0 1.0
2017-Apr-23 11:00N 51°07' E 001°20'714.8
2017-Apr-23 10:31N 51°06' E 001°32'1019.3
2017-Apr-23 10:00N 50°59' E 001°43'510.4
2017-Apr-23 09:30N 50°58' E 001°51'0 0.0
2017-Apr-23 08:50N 50°58' E 001°51'310.1
2017-Apr-23 08:30N 50°58' E 001°46'918.9
2017-Apr-23 08:00N 51°01' E 001°31'917.9
2017-Apr-23 07:30N 51°07' E 001°21'1 0.4
2017-Apr-23 05:58N 51°07' E 001°20'612.4
2017-Apr-23 05:30N 51°05' E 001°29'1019.6
2017-Apr-23 05:01N 50°60' E 001°41'612.6
2017-Apr-23 04:30N 50°58' E 001°51'0 0.0
2017-Apr-23 04:00N 50°58' E 001°51'0 0.5
2017-Apr-23 03:30N 50°58' E 001°51'816.1
2017-Apr-23 03:01N 50°59' E 001°38'1019.9
2017-Apr-23 02:31N 51°05' E 001°25'4 5.5
2017-Apr-23 01:45N 51°07' E 001°20'0 0.0
2017-Apr-23 01:10N 51°07' E 001°20'0 0.7
2017-Apr-23 01:00N 51°07' E 001°20'713.5
2017-Apr-23 00:31N 51°07' E 001°31'714.9
2017-Apr-23 00:01N 51°01' E 001°39'815.4
2017-Apr-22 23:30N 50°58' E 001°50'0 0.9
2017-Apr-22 22:59N 50°58' E 001°51'0 0.1
2017-Apr-22 22:30N 50°58' E 001°51'815.1
2017-Apr-22 22:01N 50°59' E 001°39'918.0
2017-Apr-22 21:31N 51°04' E 001°27'5 4.5
2017-Apr-22 20:18N 51°07' E 001°20'413.9
2017-Apr-22 20:00N 51°06' E 001°26'1019.4
2017-Apr-22 19:30N 51°00' E 001°39'815.8
2017-Apr-22 19:01N 50°58' E 001°51'0 0.5
2017-Apr-22 18:30N 50°58' E 001°51'0 0.0
2017-Apr-22 18:00N 50°58' E 001°51'510.2
2017-Apr-22 17:30N 50°58' E 001°43'918.8
2017-Apr-22 17:00N 51°03' E 001°30'8 5.7
2017-Apr-22 15:39N 51°07' E 001°20'0 0.6
2017-Apr-22 15:30N 51°07' E 001°20'816.6
2017-Apr-22 15:01N 51°04' E 001°32'1020.1
2017-Apr-22 14:30N 50°58' E 001°45'4 3.7
2017-Apr-22 13:30N 50°58' E 001°51'4 8.8
2017-Apr-22 13:00N 50°58' E 001°44'918.9
2017-Apr-22 12:30N 51°03' E 001°31'8 5.9
2017-Apr-22 11:04N 51°07' E 001°20'0 1.5
2017-Apr-22 11:00N 51°07' E 001°20'815.9
2017-Apr-22 10:30N 51°04' E 001°32'1019.5
2017-Apr-22 10:01N 50°59' E 001°44'5 8.7
2017-Apr-22 09:29N 50°58' E 001°51'0 0.0
2017-Apr-22 09:00N 50°58' E 001°51'3 5.5
2017-Apr-22 08:30N 50°58' E 001°47'1019.6
2017-Apr-22 08:00N 51°02' E 001°32'917.6
2017-Apr-22 07:31N 51°07' E 001°21'1 1.0
2017-Apr-22 06:38N 51°07' E 001°20'0 0.1
2017-Apr-22 06:29N 51°07' E 001°20'510.6
2017-Apr-22 06:01N 51°05' E 001°28'917.9
2017-Apr-22 05:30N 51°00' E 001°39'815.3
2017-Apr-22 05:01N 50°58' E 001°51'0 0.3
2017-Apr-22 04:30N 50°58' E 001°51'0 0.0
2017-Apr-22 04:00N 50°58' E 001°51'3 6.2
2017-Apr-22 03:30N 50°58' E 001°46'816.1
2017-Apr-22 03:00N 51°01' E 001°34'815.8
2017-Apr-22 02:30N 51°06' E 001°24'3 5.6
2017-Apr-22 01:57N 51°07' E 001°20'0 0.0
2017-Apr-22 01:31N 51°07' E 001°20'0 0.0
2017-Apr-22 00:59N 51°07' E 001°20'510.3
2017-Apr-22 00:31N 51°06' E 001°27'917.8
2017-Apr-22 00:00N 51°00' E 001°39'815.8
2017-Apr-21 23:31N 50°58' E 001°51'0 0.4
2017-Apr-21 23:00N 50°58' E 001°51'1 2.4
2017-Apr-21 22:30N 50°58' E 001°49'1019.5
2017-Apr-21 22:00N 50°58' E 001°34'918.0
2017-Apr-21 21:30N 51°05' E 001°25'4 6.4
2017-Apr-21 20:56N 51°07' E 001°20'0 0.0
2017-Apr-21 20:29N 51°07' E 001°20'3 6.1
2017-Apr-21 20:00N 51°07' E 001°25'917.6
2017-Apr-21 19:30N 51°02' E 001°36'816.2
2017-Apr-21 19:00N 50°58' E 001°48'2 4.0
2017-Apr-21 18:30N 50°58' E 001°51'0 0.0
2017-Apr-21 18:00N 50°58' E 001°51'611.7
2017-Apr-21 17:31N 50°58' E 001°42'917.2
2017-Apr-21 17:01N 51°02' E 001°30'815.8
2017-Apr-21 16:30N 51°07' E 001°20'0 0.9
2017-Apr-21 15:59N 51°07' E 001°20'0 0.2
2017-Apr-21 15:26N 51°07' E 001°20'614.6
2017-Apr-21 15:00N 51°05' E 001°29'1019.7
2017-Apr-21 14:30N 50°59' E 001°42'6 5.7
2017-Apr-21 13:30N 50°58' E 001°51'2 4.6
2017-Apr-21 13:01N 50°58' E 001°47'917.8
2017-Apr-21 12:31N 51°01' E 001°34'1019.3
2017-Apr-21 12:00N 51°07' E 001°21'1 0.9
2017-Apr-21 11:03N 51°07' E 001°20'0 2.5
2017-Apr-21 10:58N 51°07' E 001°20'714.9
2017-Apr-21 10:31N 51°04' E 001°30'918.6
2017-Apr-21 10:00N 50°59' E 001°42'611.1
2017-Apr-21 09:30N 50°58' E 001°51'0 0.0
2017-Apr-21 09:00N 50°58' E 001°51'3 5.3
2017-Apr-21 08:30N 50°58' E 001°47'917.8
2017-Apr-21 08:00N 51°00' E 001°33'817.0
2017-Apr-21 07:30N 51°06' E 001°24'3 2.3
2017-Apr-21 06:22N 51°07' E 001°20'2 6.8
2017-Apr-21 06:00N 51°07' E 001°24'918.1
2017-Apr-21 05:30N 51°02' E 001°36'816.3
2017-Apr-21 05:00N 50°58' E 001°47'2 4.5
2017-Apr-21 04:30N 50°58' E 001°51'0 0.0
2017-Apr-21 03:59N 50°58' E 001°51'2 4.5
2017-Apr-21 03:31N 50°58' E 001°48'917.6
2017-Apr-21 03:01N 51°01' E 001°35'816.7
2017-Apr-21 02:30N 51°06' E 001°23'3 2.6
2017-Apr-21 01:31N 51°07' E 001°20'0 0.0
2017-Apr-21 01:06N 51°07' E 001°20'0 0.0
2017-Apr-21 00:58N 51°07' E 001°20'510.4
2017-Apr-21 00:31N 51°06' E 001°27'816.7
2017-Apr-21 00:01N 51°01' E 001°38'816.5
2017-Apr-20 23:30N 50°58' E 001°50'1 1.3
2017-Apr-20 23:00N 50°58' E 001°51'0 0.0
2017-Apr-20 22:30N 50°58' E 001°51'713.6
2017-Apr-20 22:00N 50°59' E 001°40'917.7
2017-Apr-20 21:30N 51°03' E 001°28'713.0
2017-Apr-20 21:00N 51°07' E 001°20'0 0.0
2017-Apr-20 20:22N 51°07' E 001°20'1 3.3
2017-Apr-20 20:00N 51°07' E 001°22'917.8
2017-Apr-20 19:31N 51°03' E 001°35'917.5
2017-Apr-20 19:01N 50°58' E 001°46'3 6.6
2017-Apr-20 18:29N 50°58' E 001°51'0 0.0
2017-Apr-20 18:00N 50°58' E 001°51'4 8.8
2017-Apr-20 17:30N 50°58' E 001°44'1019.3
2017-Apr-20 17:00N 51°02' E 001°30'816.4
2017-Apr-20 16:30N 51°07' E 001°20'0 0.0
2017-Apr-20 15:36N 51°07' E 001°20'0 1.3
2017-Apr-20 15:31N 51°07' E 001°20'816.6
2017-Apr-20 15:00N 51°04' E 001°32'1019.6
2017-Apr-20 14:31N 50°58' E 001°45'4 4.0
2017-Apr-20 13:30N 50°58' E 001°51'2 4.5
2017-Apr-20 13:01N 50°58' E 001°48'918.4
2017-Apr-20 12:30N 51°01' E 001°34'1019.7
2017-Apr-20 12:01N 51°07' E 001°21'1 1.0
2017-Apr-20 11:09N 51°07' E 001°20'0 0.7
2017-Apr-20 11:00N 51°07' E 001°20'816.4
2017-Apr-20 10:30N 51°05' E 001°33'918.9
2017-Apr-20 10:00N 50°59' E 001°44'5 9.0
2017-Apr-20 09:30N 50°58' E 001°51'0 0.0
2017-Apr-20 09:00N 50°58' E 001°51'1 3.0
2017-Apr-20 08:31N 50°58' E 001°49'917.3
2017-Apr-20 08:00N 51°01' E 001°36'918.0
2017-Apr-20 07:30N 51°06' E 001°24'3 2.4
2017-Apr-20 06:25N 51°07' E 001°20'3 8.3
2017-Apr-20 06:00N 51°06' E 001°25'917.6
2017-Apr-20 05:30N 51°01' E 001°37'815.7
2017-Apr-20 05:00N 50°58' E 001°48'2 3.9
2017-Apr-20 04:30N 50°58' E 001°51'0 0.0
2017-Apr-20 04:00N 50°58' E 001°51'1 2.5
2017-Apr-20 03:31N 50°58' E 001°49'918.6
2017-Apr-20 03:01N 50°60' E 001°35'917.2
2017-Apr-20 02:31N 51°06' E 001°25'4 5.6
2017-Apr-20 01:53N 51°07' E 001°20'0 0.0
2017-Apr-20 01:23N 51°07' E 001°20'3 7.8
2017-Apr-20 01:01N 51°07' E 001°25'1019.5
2017-Apr-20 00:31N 51°01' E 001°37'917.6
2017-Apr-20 00:00N 50°58' E 001°51'0 0.7
2017-Apr-19 23:30N 50°58' E 001°51'0 0.0
2017-Apr-19 23:00N 50°58' E 001°51'0 0.0
2017-Apr-19 22:30N 50°58' E 001°51'713.6
2017-Apr-19 22:00N 50°59' E 001°40'919.0
2017-Apr-19 21:30N 51°04' E 001°28'6 6.4
2017-Apr-19 20:33N 51°07' E 001°20'0 0.0
2017-Apr-19 20:07N 51°07' E 001°20'0 1.0
2017-Apr-19 20:00N 51°07' E 001°20'816.9
2017-Apr-19 19:31N 51°04' E 001°32'1019.1
2017-Apr-19 19:00N 50°58' E 001°45'4 8.0
2017-Apr-19 18:30N 50°58' E 001°51'0 0.0
2017-Apr-19 18:00N 50°58' E 001°51'3 6.6
2017-Apr-19 17:30N 50°58' E 001°46'917.5
2017-Apr-19 17:01N 51°01' E 001°33'917.4
2017-Apr-19 16:30N 51°06' E 001°21'1 1.3
2017-Apr-19 15:23N 51°07' E 001°20'513.6
2017-Apr-19 15:00N 51°05' E 001°28'1019.1
2017-Apr-19 14:30N 50°60' E 001°40'713.8
2017-Apr-19 14:00N 50°58' E 001°51'0 0.2
2017-Apr-19 13:30N 50°58' E 001°51'1 2.1
2017-Apr-19 13:00N 50°58' E 001°50'917.5
2017-Apr-19 12:30N 50°59' E 001°36'918.8
2017-Apr-19 12:00N 51°05' E 001°23'3 3.3
2017-Apr-19 10:58N 51°07' E 001°20'614.3
2017-Apr-19 10:30N 51°06' E 001°30'918.8
2017-Apr-19 10:01N 50°59' E 001°41'713.0
2017-Apr-19 09:30N 50°58' E 001°51'0 0.0
2017-Apr-19 09:00N 50°58' E 001°51'2 4.6
2017-Apr-19 08:31N 50°58' E 001°47'917.7
2017-Apr-19 08:00N 51°01' E 001°34'1019.2
2017-Apr-19 07:30N 51°07' E 001°22'1 1.3
2017-Apr-19 06:25N 51°07' E 001°20'3 7.9
2017-Apr-19 06:00N 51°07' E 001°25'917.4
2017-Apr-19 05:30N 51°01' E 001°36'816.1
2017-Apr-19 05:00N 50°58' E 001°48'2 3.9
2017-Apr-19 04:30N 50°58' E 001°51'0 0.0
2017-Apr-19 04:00N 50°58' E 001°51'1 1.4
2017-Apr-19 03:30N 50°58' E 001°50'917.8
2017-Apr-19 03:00N 50°60' E 001°36'917.5
2017-Apr-19 02:30N 51°05' E 001°25'4 3.8
2017-Apr-19 01:31N 51°07' E 001°20'0 0.0
2017-Apr-19 01:02N 51°07' E 001°20'0 0.3
2017-Apr-19 01:00N 51°07' E 001°20'611.8
2017-Apr-19 00:30N 51°05' E 001°29'917.8
2017-Apr-19 00:01N 51°00' E 001°40'714.1
2017-Apr-18 23:30N 50°58' E 001°51'0 0.1
2017-Apr-18 23:00N 50°58' E 001°51'0 0.0
2017-Apr-18 22:30N 50°58' E 001°51'611.4
2017-Apr-18 22:00N 50°58' E 001°42'816.8
2017-Apr-18 21:31N 51°03' E 001°31'8 7.0
2017-Apr-18 20:20N 51°07' E 001°20'1 2.2
2017-Apr-18 20:00N 51°07' E 001°21'917.8
2017-Apr-18 19:30N 51°03' E 001°34'918.8
2017-Apr-18 19:00N 50°58' E 001°46'3 5.9
2017-Apr-18 18:30N 50°58' E 001°51'0 0.0
2017-Apr-18 18:00N 50°58' E 001°51'714.4
2017-Apr-18 17:30N 50°58' E 001°40'918.7
2017-Apr-18 17:01N 51°04' E 001°28'6 6.3
2017-Apr-18 16:03N 51°07' E 001°20'0 0.0
2017-Apr-18 15:50N 51°07' E 001°20'2 6.8
2017-Apr-18 15:31N 51°07' E 001°24'918.7
2017-Apr-18 15:00N 51°03' E 001°37'1010.0
2017-Apr-18 14:01N 50°58' E 001°51'0 0.0
2017-Apr-18 13:31N 50°58' E 001°51'4 7.5
2017-Apr-18 13:00N 50°58' E 001°45'918.2
2017-Apr-18 12:30N 51°02' E 001°32'917.8
2017-Apr-18 11:59N 51°07' E 001°20'0 0.6
2017-Apr-18 11:15N 51°07' E 001°20'0 1.0
2017-Apr-18 11:00N 51°07' E 001°20'917.6
2017-Apr-18 10:30N 51°04' E 001°33'919.0
2017-Apr-18 10:00N 50°58' E 001°45'4 7.6
2017-Apr-18 09:30N 50°58' E 001°51'0 0.0
2017-Apr-18 09:00N 50°58' E 001°51'0 0.8
2017-Apr-18 08:30N 50°58' E 001°51'816.7
2017-Apr-18 08:01N 50°60' E 001°38'1019.8
2017-Apr-18 07:31N 51°05' E 001°25'4 5.5
2017-Apr-18 06:50N 51°07' E 001°20'0 0.1
2017-Apr-18 06:16N 51°07' E 001°20'2 7.1
2017-Apr-18 06:00N 51°07' E 001°23'918.3
2017-Apr-18 05:31N 51°03' E 001°36'917.5
2017-Apr-18 05:01N 50°58' E 001°47'2 4.2
2017-Apr-18 04:28N 50°58' E 001°51'0 0.0
2017-Apr-18 04:00N 50°58' E 001°51'0 0.1
2017-Apr-18 03:30N 50°58' E 001°51'816.2
2017-Apr-18 03:00N 50°60' E 001°38'917.9
2017-Apr-18 02:31N 51°05' E 001°27'5 9.3
2017-Apr-18 01:58N 51°07' E 001°20'0 0.0
2017-Apr-18 01:28N 51°07' E 001°20'0 0.0
2017-Apr-18 00:57N 51°07' E 001°20'4 9.6
2017-Apr-18 00:30N 51°06' E 001°27'1020.1
2017-Apr-18 00:01N 51°01' E 001°40'612.7
2017-Apr-17 23:31N 50°58' E 001°49'1 2.3
2017-Apr-17 23:00N 50°58' E 001°51'1 1.0
2017-Apr-17 22:30N 50°58' E 001°50'714.4
2017-Apr-17 22:01N 50°58' E 001°39'612.5
2017-Apr-17 21:30N 51°01' E 001°31'916.4
2017-Apr-17 20:56N 51°07' E 001°20'0 0.0
2017-Apr-17 20:02N 51°07' E 001°20'0 1.7
2017-Apr-17 19:59N 51°07' E 001°20'715.1
2017-Apr-17 19:30N 51°05' E 001°31'917.9
2017-Apr-17 19:00N 50°59' E 001°42'610.7
2017-Apr-17 18:29N 50°58' E 001°51'0 0.0
2017-Apr-17 18:00N 50°58' E 001°51'1 2.6
2017-Apr-17 17:30N 50°58' E 001°49'1019.5
2017-Apr-17 17:01N 50°59' E 001°34'1019.0
2017-Apr-17 16:31N 51°06' E 001°23'3 2.8
2017-Apr-17 15:34N 51°07' E 001°20'0 1.4
2017-Apr-17 15:30N 51°07' E 001°20'816.0
2017-Apr-17 15:01N 51°04' E 001°32'918.9
2017-Apr-17 14:31N 50°59' E 001°44'5 4.4
2017-Apr-17 13:28N 50°58' E 001°51'3 5.5
2017-Apr-17 13:01N 50°58' E 001°47'  

Dump ship's entire track history